sensor_id;sensor_type;location;lat;lon;timestamp;P1;durP1;ratioP1;P2;durP2;ratioP2
4889;SDS011;2459;42.268;23.112;2022-12-29T00:01:50;63.13;;;27.13;;
4889;SDS011;2459;42.268;23.112;2022-12-29T00:04:17;67.97;;;28.73;;
4889;SDS011;2459;42.268;23.112;2022-12-29T00:06:45;54.53;;;26.10;;
4889;SDS011;2459;42.268;23.112;2022-12-29T00:09:12;56.17;;;26.33;;
4889;SDS011;2459;42.268;23.112;2022-12-29T00:11:38;54.47;;;26.87;;
4889;SDS011;2459;42.268;23.112;2022-12-29T00:14:05;58.63;;;27.73;;
4889;SDS011;2459;42.268;23.112;2022-12-29T00:16:49;64.63;;;27.33;;
4889;SDS011;2459;42.268;23.112;2022-12-29T00:19:16;60.13;;;28.63;;
4889;SDS011;2459;42.268;23.112;2022-12-29T00:22:00;66.80;;;28.37;;
4889;SDS011;2459;42.268;23.112;2022-12-29T00:24:44;65.40;;;24.70;;
4889;SDS011;2459;42.268;23.112;2022-12-29T00:27:29;60.67;;;28.70;;
4889;SDS011;2459;42.268;23.112;2022-12-29T00:30:13;57.73;;;27.23;;
4889;SDS011;2459;42.268;23.112;2022-12-29T00:32:58;46.03;;;23.77;;
4889;SDS011;2459;42.268;23.112;2022-12-29T00:35:42;50.53;;;25.90;;
4889;SDS011;2459;42.268;23.112;2022-12-29T00:38:11;57.33;;;25.50;;
4889;SDS011;2459;42.268;23.112;2022-12-29T00:40:56;50.13;;;26.73;;
4889;SDS011;2459;42.268;23.112;2022-12-29T00:43:40;48.03;;;22.23;;
4889;SDS011;2459;42.268;23.112;2022-12-29T00:46:24;50.90;;;25.83;;
4889;SDS011;2459;42.268;23.112;2022-12-29T00:48:50;44.77;;;24.63;;
4889;SDS011;2459;42.268;23.112;2022-12-29T00:51:34;43.00;;;24.13;;
4889;SDS011;2459;42.268;23.112;2022-12-29T00:54:02;53.23;;;23.00;;
4889;SDS011;2459;42.268;23.112;2022-12-29T00:56:29;47.10;;;22.37;;
4889;SDS011;2459;42.268;23.112;2022-12-29T00:58:55;49.37;;;23.33;;
4889;SDS011;2459;42.268;23.112;2022-12-29T01:01:25;54.30;;;24.77;;
4889;SDS011;2459;42.268;23.112;2022-12-29T01:03:52;52.00;;;25.33;;
4889;SDS011;2459;42.268;23.112;2022-12-29T01:06:18;43.03;;;22.63;;
4889;SDS011;2459;42.268;23.112;2022-12-29T01:08:45;48.73;;;25.60;;
4889;SDS011;2459;42.268;23.112;2022-12-29T01:11:19;58.30;;;25.67;;
4889;SDS011;2459;42.268;23.112;2022-12-29T01:13:44;55.40;;;27.77;;
4889;SDS011;2459;42.268;23.112;2022-12-29T01:16:10;59.40;;;29.33;;
4889;SDS011;2459;42.268;23.112;2022-12-29T01:18:37;65.53;;;27.67;;
4889;SDS011;2459;42.268;23.112;2022-12-29T01:21:04;56.90;;;25.30;;
4889;SDS011;2459;42.268;23.112;2022-12-29T01:23:31;55.07;;;25.00;;
4889;SDS011;2459;42.268;23.112;2022-12-29T01:26:07;52.27;;;26.33;;
4889;SDS011;2459;42.268;23.112;2022-12-29T01:28:35;59.63;;;27.47;;
4889;SDS011;2459;42.268;23.112;2022-12-29T01:31:03;60.63;;;27.20;;
4889;SDS011;2459;42.268;23.112;2022-12-29T01:33:30;52.73;;;26.47;;
4889;SDS011;2459;42.268;23.112;2022-12-29T01:35:59;64.90;;;27.77;;
4889;SDS011;2459;42.268;23.112;2022-12-29T01:38:26;59.07;;;29.50;;
4889;SDS011;2459;42.268;23.112;2022-12-29T01:40:52;72.67;;;30.50;;
4889;SDS011;2459;42.268;23.112;2022-12-29T01:43:19;62.73;;;27.40;;
4889;SDS011;2459;42.268;23.112;2022-12-29T01:45:47;92.53;;;32.53;;
4889;SDS011;2459;42.268;23.112;2022-12-29T01:48:14;64.77;;;31.57;;
4889;SDS011;2459;42.268;23.112;2022-12-29T01:50:42;66.20;;;30.00;;
4889;SDS011;2459;42.268;23.112;2022-12-29T01:53:12;66.70;;;29.73;;
4889;SDS011;2459;42.268;23.112;2022-12-29T01:55:40;71.57;;;28.43;;
4889;SDS011;2459;42.268;23.112;2022-12-29T01:58:08;59.20;;;25.87;;
4889;SDS011;2459;42.268;23.112;2022-12-29T02:00:36;67.63;;;28.90;;
4889;SDS011;2459;42.268;23.112;2022-12-29T02:03:04;71.10;;;33.10;;
4889;SDS011;2459;42.268;23.112;2022-12-29T02:05:33;61.23;;;29.27;;
4889;SDS011;2459;42.268;23.112;2022-12-29T02:08:00;67.53;;;29.63;;
4889;SDS011;2459;42.268;23.112;2022-12-29T02:10:27;60.77;;;29.80;;
4889;SDS011;2459;42.268;23.112;2022-12-29T02:12:54;60.47;;;26.40;;
4889;SDS011;2459;42.268;23.112;2022-12-29T02:15:21;122.97;;;50.17;;
4889;SDS011;2459;42.268;23.112;2022-12-29T02:17:59;69.17;;;30.47;;
4889;SDS011;2459;42.268;23.112;2022-12-29T02:20:36;60.13;;;26.90;;
4889;SDS011;2459;42.268;23.112;2022-12-29T02:23:11;92.70;;;37.33;;
4889;SDS011;2459;42.268;23.112;2022-12-29T02:25:44;71.90;;;39.20;;
4889;SDS011;2459;42.268;23.112;2022-12-29T02:31:03;77.10;;;38.17;;
4889;SDS011;2459;42.268;23.112;2022-12-29T02:33:37;69.40;;;34.30;;
4889;SDS011;2459;42.268;23.112;2022-12-29T02:36:06;72.27;;;34.33;;
4889;SDS011;2459;42.268;23.112;2022-12-29T02:38:41;56.40;;;28.20;;
4889;SDS011;2459;42.268;23.112;2022-12-29T02:41:10;59.03;;;27.70;;
4889;SDS011;2459;42.268;23.112;2022-12-29T02:43:42;57.23;;;27.30;;
4889;SDS011;2459;42.268;23.112;2022-12-29T02:46:17;64.33;;;30.63;;
4889;SDS011;2459;42.268;23.112;2022-12-29T02:48:46;53.63;;;27.57;;
4889;SDS011;2459;42.268;23.112;2022-12-29T02:51:15;60.50;;;27.70;;
4889;SDS011;2459;42.268;23.112;2022-12-29T02:53:44;57.33;;;27.73;;
4889;SDS011;2459;42.268;23.112;2022-12-29T02:56:28;55.30;;;28.03;;
4889;SDS011;2459;42.268;23.112;2022-12-29T02:58:55;53.80;;;28.33;;
4889;SDS011;2459;42.268;23.112;2022-12-29T03:01:26;56.00;;;23.43;;
4889;SDS011;2459;42.268;23.112;2022-12-29T03:04:00;60.23;;;25.20;;
4889;SDS011;2459;42.268;23.112;2022-12-29T03:06:31;52.13;;;25.40;;
4889;SDS011;2459;42.268;23.112;2022-12-29T03:09:00;49.47;;;24.27;;
4889;SDS011;2459;42.268;23.112;2022-12-29T03:11:30;49.50;;;22.90;;
4889;SDS011;2459;42.268;23.112;2022-12-29T03:14:17;46.57;;;23.40;;
4889;SDS011;2459;42.268;23.112;2022-12-29T03:17:06;58.93;;;25.70;;
4889;SDS011;2459;42.268;23.112;2022-12-29T03:19:35;49.43;;;23.40;;
4889;SDS011;2459;42.268;23.112;2022-12-29T03:22:03;47.87;;;24.07;;
4889;SDS011;2459;42.268;23.112;2022-12-29T03:24:49;51.00;;;25.50;;
4889;SDS011;2459;42.268;23.112;2022-12-29T03:27:19;46.67;;;22.20;;
4889;SDS011;2459;42.268;23.112;2022-12-29T03:29:47;41.70;;;22.23;;
4889;SDS011;2459;42.268;23.112;2022-12-29T03:32:21;52.07;;;24.10;;
4889;SDS011;2459;42.268;23.112;2022-12-29T03:34:50;45.20;;;24.53;;
4889;SDS011;2459;42.268;23.112;2022-12-29T03:37:17;53.00;;;24.57;;
4889;SDS011;2459;42.268;23.112;2022-12-29T03:39:44;56.53;;;24.13;;
4889;SDS011;2459;42.268;23.112;2022-12-29T03:42:11;46.00;;;23.67;;
4889;SDS011;2459;42.268;23.112;2022-12-29T03:44:40;65.57;;;22.50;;
4889;SDS011;2459;42.268;23.112;2022-12-29T03:47:07;57.67;;;27.00;;
4889;SDS011;2459;42.268;23.112;2022-12-29T03:49:35;59.50;;;29.77;;
4889;SDS011;2459;42.268;23.112;2022-12-29T03:52:01;74.03;;;36.20;;
4889;SDS011;2459;42.268;23.112;2022-12-29T03:54:28;62.77;;;28.63;;
4889;SDS011;2459;42.268;23.112;2022-12-29T03:56:55;62.00;;;31.40;;
4889;SDS011;2459;42.268;23.112;2022-12-29T03:59:22;76.67;;;35.37;;
4889;SDS011;2459;42.268;23.112;2022-12-29T04:01:48;71.93;;;34.10;;
4889;SDS011;2459;42.268;23.112;2022-12-29T04:04:15;59.17;;;28.60;;
4889;SDS011;2459;42.268;23.112;2022-12-29T04:06:42;52.97;;;27.30;;
4889;SDS011;2459;42.268;23.112;2022-12-29T04:09:09;55.70;;;25.77;;
4889;SDS011;2459;42.268;23.112;2022-12-29T04:11:36;53.30;;;25.20;;
4889;SDS011;2459;42.268;23.112;2022-12-29T04:14:02;52.67;;;25.10;;
4889;SDS011;2459;42.268;23.112;2022-12-29T04:16:29;56.80;;;24.33;;
4889;SDS011;2459;42.268;23.112;2022-12-29T04:18:55;48.83;;;24.67;;
4889;SDS011;2459;42.268;23.112;2022-12-29T04:21:22;88.13;;;27.43;;
4889;SDS011;2459;42.268;23.112;2022-12-29T04:23:49;50.27;;;24.13;;
4889;SDS011;2459;42.268;23.112;2022-12-29T04:26:16;59.07;;;27.40;;
4889;SDS011;2459;42.268;23.112;2022-12-29T04:28:42;52.77;;;27.10;;
4889;SDS011;2459;42.268;23.112;2022-12-29T04:31:09;52.00;;;26.33;;
4889;SDS011;2459;42.268;23.112;2022-12-29T04:33:35;59.30;;;24.87;;
4889;SDS011;2459;42.268;23.112;2022-12-29T04:36:02;44.97;;;22.30;;
4889;SDS011;2459;42.268;23.112;2022-12-29T04:38:28;53.40;;;25.30;;
4889;SDS011;2459;42.268;23.112;2022-12-29T04:40:58;47.60;;;24.17;;
4889;SDS011;2459;42.268;23.112;2022-12-29T04:43:24;49.80;;;24.47;;
4889;SDS011;2459;42.268;23.112;2022-12-29T04:45:51;53.40;;;26.60;;
4889;SDS011;2459;42.268;23.112;2022-12-29T04:48:17;46.10;;;22.90;;
4889;SDS011;2459;42.268;23.112;2022-12-29T04:50:46;56.10;;;25.97;;
4889;SDS011;2459;42.268;23.112;2022-12-29T04:53:13;58.50;;;26.13;;
4889;SDS011;2459;42.268;23.112;2022-12-29T04:55:39;49.40;;;25.60;;
4889;SDS011;2459;42.268;23.112;2022-12-29T04:58:07;59.20;;;26.60;;
4889;SDS011;2459;42.268;23.112;2022-12-29T05:00:34;56.23;;;28.40;;
4889;SDS011;2459;42.268;23.112;2022-12-29T05:03:00;57.77;;;28.53;;
4889;SDS011;2459;42.268;23.112;2022-12-29T05:05:27;63.43;;;29.13;;
4889;SDS011;2459;42.268;23.112;2022-12-29T05:07:53;265.83;;;36.07;;
4889;SDS011;2459;42.268;23.112;2022-12-29T05:10:20;120.20;;;28.77;;
4889;SDS011;2459;42.268;23.112;2022-12-29T05:12:46;89.93;;;29.97;;
4889;SDS011;2459;42.268;23.112;2022-12-29T05:15:14;58.23;;;27.30;;
4889;SDS011;2459;42.268;23.112;2022-12-29T05:20:44;50.03;;;22.93;;
4889;SDS011;2459;42.268;23.112;2022-12-29T05:23:10;90.20;;;26.50;;
4889;SDS011;2459;42.268;23.112;2022-12-29T05:25:37;33.17;;;16.70;;
4889;SDS011;2459;42.268;23.112;2022-12-29T05:28:03;41.17;;;23.00;;
4889;SDS011;2459;42.268;23.112;2022-12-29T05:30:31;46.30;;;20.70;;
4889;SDS011;2459;42.268;23.112;2022-12-29T05:32:58;44.30;;;22.70;;
4889;SDS011;2459;42.268;23.112;2022-12-29T05:35:24;45.47;;;23.67;;
4889;SDS011;2459;42.268;23.112;2022-12-29T05:37:50;61.53;;;28.40;;
4889;SDS011;2459;42.268;23.112;2022-12-29T05:40:17;47.83;;;23.40;;
4889;SDS011;2459;42.268;23.112;2022-12-29T05:42:43;57.77;;;24.63;;
4889;SDS011;2459;42.268;23.112;2022-12-29T05:45:10;52.97;;;23.13;;
4889;SDS011;2459;42.268;23.112;2022-12-29T05:47:38;62.33;;;28.00;;
4889;SDS011;2459;42.268;23.112;2022-12-29T05:50:04;74.47;;;34.50;;
4889;SDS011;2459;42.268;23.112;2022-12-29T05:52:46;75.17;;;36.73;;
4889;SDS011;2459;42.268;23.112;2022-12-29T05:55:12;67.80;;;32.53;;
4889;SDS011;2459;42.268;23.112;2022-12-29T05:57:42;61.93;;;28.00;;
4889;SDS011;2459;42.268;23.112;2022-12-29T06:00:08;74.73;;;30.43;;
4889;SDS011;2459;42.268;23.112;2022-12-29T06:02:35;93.53;;;39.67;;
4889;SDS011;2459;42.268;23.112;2022-12-29T06:05:03;71.23;;;30.43;;
4889;SDS011;2459;42.268;23.112;2022-12-29T06:07:30;81.33;;;33.77;;
4889;SDS011;2459;42.268;23.112;2022-12-29T06:09:56;79.37;;;37.67;;
4889;SDS011;2459;42.268;23.112;2022-12-29T06:12:23;70.33;;;35.27;;
4889;SDS011;2459;42.268;23.112;2022-12-29T06:14:49;74.33;;;36.27;;
4889;SDS011;2459;42.268;23.112;2022-12-29T06:17:16;81.20;;;38.57;;
4889;SDS011;2459;42.268;23.112;2022-12-29T06:19:42;101.97;;;45.97;;
4889;SDS011;2459;42.268;23.112;2022-12-29T06:22:10;54.53;;;27.80;;
4889;SDS011;2459;42.268;23.112;2022-12-29T06:24:38;68.33;;;29.07;;
4889;SDS011;2459;42.268;23.112;2022-12-29T06:27:04;63.90;;;29.03;;
4889;SDS011;2459;42.268;23.112;2022-12-29T06:29:31;54.97;;;28.60;;
4889;SDS011;2459;42.268;23.112;2022-12-29T06:31:57;59.93;;;30.10;;
4889;SDS011;2459;42.268;23.112;2022-12-29T06:34:25;68.27;;;30.93;;
4889;SDS011;2459;42.268;23.112;2022-12-29T06:36:51;68.47;;;30.60;;
4889;SDS011;2459;42.268;23.112;2022-12-29T06:39:19;76.90;;;33.30;;
4889;SDS011;2459;42.268;23.112;2022-12-29T06:41:46;60.47;;;29.57;;
4889;SDS011;2459;42.268;23.112;2022-12-29T06:44:12;81.13;;;32.77;;
4889;SDS011;2459;42.268;23.112;2022-12-29T06:46:39;75.40;;;31.90;;
4889;SDS011;2459;42.268;23.112;2022-12-29T06:49:05;89.27;;;38.63;;
4889;SDS011;2459;42.268;23.112;2022-12-29T06:51:31;75.30;;;33.17;;
4889;SDS011;2459;42.268;23.112;2022-12-29T06:53:58;69.30;;;32.73;;
4889;SDS011;2459;42.268;23.112;2022-12-29T06:56:26;74.10;;;34.47;;
4889;SDS011;2459;42.268;23.112;2022-12-29T06:58:52;74.57;;;32.93;;
4889;SDS011;2459;42.268;23.112;2022-12-29T07:01:19;64.63;;;31.80;;
4889;SDS011;2459;42.268;23.112;2022-12-29T07:03:45;65.63;;;32.00;;
4889;SDS011;2459;42.268;23.112;2022-12-29T07:06:12;61.47;;;29.90;;
4889;SDS011;2459;42.268;23.112;2022-12-29T07:08:38;71.27;;;33.43;;
4889;SDS011;2459;42.268;23.112;2022-12-29T07:11:05;58.53;;;29.40;;
4889;SDS011;2459;42.268;23.112;2022-12-29T07:13:39;68.03;;;32.60;;
4889;SDS011;2459;42.268;23.112;2022-12-29T07:16:06;81.37;;;31.80;;
4889;SDS011;2459;42.268;23.112;2022-12-29T07:18:32;68.90;;;34.87;;
4889;SDS011;2459;42.268;23.112;2022-12-29T07:20:59;67.97;;;30.30;;
4889;SDS011;2459;42.268;23.112;2022-12-29T07:23:25;65.80;;;32.60;;
4889;SDS011;2459;42.268;23.112;2022-12-29T07:25:58;68.30;;;32.07;;
4889;SDS011;2459;42.268;23.112;2022-12-29T07:28:25;84.53;;;30.77;;
4889;SDS011;2459;42.268;23.112;2022-12-29T07:30:53;59.80;;;32.80;;
4889;SDS011;2459;42.268;23.112;2022-12-29T07:33:19;71.40;;;32.27;;
4889;SDS011;2459;42.268;23.112;2022-12-29T07:35:45;63.07;;;28.77;;
4889;SDS011;2459;42.268;23.112;2022-12-29T07:38:12;76.97;;;34.67;;
4889;SDS011;2459;42.268;23.112;2022-12-29T07:40:39;53.80;;;24.93;;
4889;SDS011;2459;42.268;23.112;2022-12-29T07:43:05;65.40;;;27.40;;
4889;SDS011;2459;42.268;23.112;2022-12-29T07:45:32;53.03;;;28.60;;
4889;SDS011;2459;42.268;23.112;2022-12-29T07:48:00;62.27;;;29.13;;
4889;SDS011;2459;42.268;23.112;2022-12-29T07:50:27;92.13;;;35.93;;
4889;SDS011;2459;42.268;23.112;2022-12-29T07:52:53;60.50;;;30.50;;
4889;SDS011;2459;42.268;23.112;2022-12-29T07:55:20;34.50;;;21.70;;
4889;SDS011;2459;42.268;23.112;2022-12-29T07:57:46;54.87;;;26.70;;
4889;SDS011;2459;42.268;23.112;2022-12-29T08:00:14;58.60;;;28.30;;
4889;SDS011;2459;42.268;23.112;2022-12-29T08:02:40;57.40;;;26.90;;
4889;SDS011;2459;42.268;23.112;2022-12-29T08:05:08;53.07;;;28.00;;
4889;SDS011;2459;42.268;23.112;2022-12-29T08:07:35;58.17;;;28.33;;
4889;SDS011;2459;42.268;23.112;2022-12-29T08:10:01;54.97;;;29.00;;
4889;SDS011;2459;42.268;23.112;2022-12-29T08:12:28;59.37;;;29.93;;
4889;SDS011;2459;42.268;23.112;2022-12-29T08:14:54;63.87;;;28.53;;
4889;SDS011;2459;42.268;23.112;2022-12-29T08:17:21;46.80;;;25.53;;
4889;SDS011;2459;42.268;23.112;2022-12-29T08:19:47;71.30;;;34.47;;
4889;SDS011;2459;42.268;23.112;2022-12-29T08:22:15;68.30;;;30.50;;
4889;SDS011;2459;42.268;23.112;2022-12-29T08:24:42;55.63;;;30.50;;
4889;SDS011;2459;42.268;23.112;2022-12-29T08:27:08;61.60;;;30.07;;
4889;SDS011;2459;42.268;23.112;2022-12-29T08:29:35;65.23;;;29.10;;
4889;SDS011;2459;42.268;23.112;2022-12-29T08:32:01;50.67;;;28.37;;
4889;SDS011;2459;42.268;23.112;2022-12-29T08:34:28;100.73;;;39.87;;
4889;SDS011;2459;42.268;23.112;2022-12-29T08:36:56;54.63;;;29.33;;
4889;SDS011;2459;42.268;23.112;2022-12-29T08:39:24;82.87;;;31.40;;
4889;SDS011;2459;42.268;23.112;2022-12-29T08:41:50;57.63;;;29.73;;
4889;SDS011;2459;42.268;23.112;2022-12-29T08:44:17;115.80;;;31.50;;
4889;SDS011;2459;42.268;23.112;2022-12-29T08:46:43;50.57;;;23.23;;
4889;SDS011;2459;42.268;23.112;2022-12-29T08:49:10;43.93;;;25.87;;
4889;SDS011;2459;42.268;23.112;2022-12-29T08:51:36;42.60;;;20.83;;
4889;SDS011;2459;42.268;23.112;2022-12-29T08:54:03;121.00;;;37.27;;
4889;SDS011;2459;42.268;23.112;2022-12-29T08:56:31;34.03;;;17.93;;
4889;SDS011;2459;42.268;23.112;2022-12-29T08:58:57;26.63;;;15.10;;
4889;SDS011;2459;42.268;23.112;2022-12-29T09:01:24;59.17;;;18.80;;
4889;SDS011;2459;42.268;23.112;2022-12-29T09:03:50;28.40;;;15.53;;
4889;SDS011;2459;42.268;23.112;2022-12-29T09:06:17;37.93;;;15.33;;
4889;SDS011;2459;42.268;23.112;2022-12-29T09:08:44;36.60;;;17.30;;
4889;SDS011;2459;42.268;23.112;2022-12-29T09:11:11;29.30;;;15.50;;
4889;SDS011;2459;42.268;23.112;2022-12-29T09:13:39;44.70;;;17.10;;
4889;SDS011;2459;42.268;23.112;2022-12-29T09:16:06;39.80;;;20.03;;
4889;SDS011;2459;42.268;23.112;2022-12-29T09:18:32;38.40;;;18.60;;
4889;SDS011;2459;42.268;23.112;2022-12-29T09:20:59;44.10;;;19.17;;
4889;SDS011;2459;42.268;23.112;2022-12-29T09:23:26;35.07;;;18.50;;
4889;SDS011;2459;42.268;23.112;2022-12-29T09:25:52;33.93;;;19.10;;
4889;SDS011;2459;42.268;23.112;2022-12-29T09:28:19;36.47;;;20.57;;
4889;SDS011;2459;42.268;23.112;2022-12-29T09:30:47;47.10;;;22.33;;
4889;SDS011;2459;42.268;23.112;2022-12-29T09:33:13;38.60;;;21.37;;
4889;SDS011;2459;42.268;23.112;2022-12-29T09:35:41;42.73;;;20.20;;
4889;SDS011;2459;42.268;23.112;2022-12-29T09:38:07;48.97;;;21.60;;
4889;SDS011;2459;42.268;23.112;2022-12-29T09:40:34;41.20;;;22.80;;
4889;SDS011;2459;42.268;23.112;2022-12-29T09:43:06;42.37;;;20.03;;
4889;SDS011;2459;42.268;23.112;2022-12-29T09:45:39;54.33;;;22.50;;
4889;SDS011;2459;42.268;23.112;2022-12-29T09:48:09;42.53;;;22.63;;
4889;SDS011;2459;42.268;23.112;2022-12-29T09:50:37;40.27;;;22.17;;
4889;SDS011;2459;42.268;23.112;2022-12-29T09:53:07;45.90;;;24.70;;
4889;SDS011;2459;42.268;23.112;2022-12-29T09:55:37;36.03;;;19.30;;
4889;SDS011;2459;42.268;23.112;2022-12-29T09:58:05;33.50;;;18.60;;
4889;SDS011;2459;42.268;23.112;2022-12-29T10:03:40;38.60;;;15.90;;
4889;SDS011;2459;42.268;23.112;2022-12-29T10:06:10;33.00;;;15.90;;
4889;SDS011;2459;42.268;23.112;2022-12-29T10:08:39;48.27;;;14.37;;
4889;SDS011;2459;42.268;23.112;2022-12-29T10:11:09;31.70;;;15.10;;
4889;SDS011;2459;42.268;23.112;2022-12-29T10:13:38;25.77;;;13.00;;
4889;SDS011;2459;42.268;23.112;2022-12-29T10:16:20;19.83;;;12.90;;
4889;SDS011;2459;42.268;23.112;2022-12-29T10:18:57;22.10;;;12.70;;
4889;SDS011;2459;42.268;23.112;2022-12-29T10:21:27;23.13;;;12.30;;
4889;SDS011;2459;42.268;23.112;2022-12-29T10:23:54;24.37;;;13.97;;
4889;SDS011;2459;42.268;23.112;2022-12-29T10:26:23;27.07;;;14.57;;
4889;SDS011;2459;42.268;23.112;2022-12-29T10:28:51;19.63;;;10.10;;
4889;SDS011;2459;42.268;23.112;2022-12-29T10:31:20;20.50;;;11.50;;
4889;SDS011;2459;42.268;23.112;2022-12-29T10:33:48;32.57;;;13.07;;
4889;SDS011;2459;42.268;23.112;2022-12-29T10:36:18;24.27;;;12.90;;
4889;SDS011;2459;42.268;23.112;2022-12-29T10:38:47;22.60;;;14.33;;
4889;SDS011;2459;42.268;23.112;2022-12-29T10:41:15;26.00;;;14.00;;
4889;SDS011;2459;42.268;23.112;2022-12-29T10:43:44;26.63;;;12.37;;
4889;SDS011;2459;42.268;23.112;2022-12-29T10:46:12;49.80;;;14.87;;
4889;SDS011;2459;42.268;23.112;2022-12-29T10:48:39;27.10;;;13.57;;
4889;SDS011;2459;42.268;23.112;2022-12-29T10:51:10;41.97;;;16.43;;
4889;SDS011;2459;42.268;23.112;2022-12-29T10:53:40;41.90;;;15.37;;
4889;SDS011;2459;42.268;23.112;2022-12-29T10:56:11;61.27;;;15.23;;
4889;SDS011;2459;42.268;23.112;2022-12-29T10:58:39;34.30;;;13.90;;
4889;SDS011;2459;42.268;23.112;2022-12-29T11:01:07;22.83;;;13.30;;
4889;SDS011;2459;42.268;23.112;2022-12-29T11:06:21;26.43;;;13.57;;
4889;SDS011;2459;42.268;23.112;2022-12-29T11:08:52;21.30;;;11.20;;
4889;SDS011;2459;42.268;23.112;2022-12-29T11:11:22;21.47;;;12.80;;
4889;SDS011;2459;42.268;23.112;2022-12-29T11:13:49;36.90;;;13.20;;
4889;SDS011;2459;42.268;23.112;2022-12-29T11:16:21;37.23;;;15.70;;
4889;SDS011;2459;42.268;23.112;2022-12-29T11:18:53;24.00;;;14.77;;
4889;SDS011;2459;42.268;23.112;2022-12-29T11:21:24;20.10;;;13.67;;
4889;SDS011;2459;42.268;23.112;2022-12-29T11:23:56;28.10;;;16.17;;
4889;SDS011;2459;42.268;23.112;2022-12-29T11:26:23;57.13;;;16.27;;
4889;SDS011;2459;42.268;23.112;2022-12-29T11:29:04;31.80;;;16.47;;
4889;SDS011;2459;42.268;23.112;2022-12-29T11:31:33;19.90;;;13.83;;
4889;SDS011;2459;42.268;23.112;2022-12-29T11:34:05;21.93;;;12.93;;
4889;SDS011;2459;42.268;23.112;2022-12-29T11:36:32;32.13;;;16.00;;
4889;SDS011;2459;42.268;23.112;2022-12-29T11:39:01;34.77;;;14.30;;
4889;SDS011;2459;42.268;23.112;2022-12-29T11:41:29;32.40;;;16.70;;
4889;SDS011;2459;42.268;23.112;2022-12-29T11:43:56;20.97;;;14.57;;
4889;SDS011;2459;42.268;23.112;2022-12-29T11:46:24;28.57;;;15.43;;
4889;SDS011;2459;42.268;23.112;2022-12-29T11:48:51;27.83;;;14.67;;
4889;SDS011;2459;42.268;23.112;2022-12-29T11:51:21;27.37;;;15.00;;
4889;SDS011;2459;42.268;23.112;2022-12-29T11:53:49;27.10;;;16.47;;
4889;SDS011;2459;42.268;23.112;2022-12-29T11:56:19;36.40;;;13.83;;
4889;SDS011;2459;42.268;23.112;2022-12-29T11:58:47;36.40;;;15.97;;
4889;SDS011;2459;42.268;23.112;2022-12-29T12:01:16;28.77;;;17.27;;
4889;SDS011;2459;42.268;23.112;2022-12-29T12:03:51;29.33;;;18.40;;
4889;SDS011;2459;42.268;23.112;2022-12-29T12:06:20;28.30;;;14.73;;
4889;SDS011;2459;42.268;23.112;2022-12-29T12:08:51;26.40;;;15.63;;
4889;SDS011;2459;42.268;23.112;2022-12-29T12:11:22;34.00;;;14.27;;
4889;SDS011;2459;42.268;23.112;2022-12-29T12:13:54;25.80;;;16.50;;
4889;SDS011;2459;42.268;23.112;2022-12-29T12:16:22;26.00;;;15.37;;
4889;SDS011;2459;42.268;23.112;2022-12-29T12:18:51;27.90;;;16.60;;
4889;SDS011;2459;42.268;23.112;2022-12-29T12:21:21;31.20;;;15.30;;
4889;SDS011;2459;42.268;23.112;2022-12-29T12:26:44;25.00;;;12.23;;
4889;SDS011;2459;42.268;23.112;2022-12-29T12:29:22;31.47;;;13.60;;
4889;SDS011;2459;42.268;23.112;2022-12-29T12:31:51;57.03;;;15.70;;
4889;SDS011;2459;42.268;23.112;2022-12-29T12:34:20;37.37;;;17.83;;
4889;SDS011;2459;42.268;23.112;2022-12-29T12:39:41;34.77;;;15.60;;
4889;SDS011;2459;42.268;23.112;2022-12-29T12:42:17;35.13;;;18.47;;
4889;SDS011;2459;42.268;23.112;2022-12-29T12:44:50;31.03;;;14.03;;
4889;SDS011;2459;42.268;23.112;2022-12-29T12:47:28;29.63;;;13.07;;
4889;SDS011;2459;42.268;23.112;2022-12-29T12:50:08;27.87;;;14.50;;
4889;SDS011;2459;42.268;23.112;2022-12-29T12:52:39;32.97;;;13.70;;
4889;SDS011;2459;42.268;23.112;2022-12-29T12:55:17;26.30;;;14.17;;
4889;SDS011;2459;42.268;23.112;2022-12-29T12:57:49;38.00;;;15.30;;
4889;SDS011;2459;42.268;23.112;2022-12-29T13:00:19;28.10;;;16.57;;
4889;SDS011;2459;42.268;23.112;2022-12-29T13:02:51;25.33;;;13.40;;
4889;SDS011;2459;42.268;23.112;2022-12-29T13:08:14;52.17;;;14.70;;
4889;SDS011;2459;42.268;23.112;2022-12-29T13:10:46;45.20;;;15.03;;
4889;SDS011;2459;42.268;23.112;2022-12-29T13:13:28;29.50;;;15.37;;
4889;SDS011;2459;42.268;23.112;2022-12-29T13:16:00;27.07;;;15.53;;
4889;SDS011;2459;42.268;23.112;2022-12-29T13:18:31;27.00;;;17.47;;
4889;SDS011;2459;42.268;23.112;2022-12-29T13:21:00;46.77;;;20.07;;
4889;SDS011;2459;42.268;23.112;2022-12-29T13:23:30;30.37;;;15.23;;
4889;SDS011;2459;42.268;23.112;2022-12-29T13:26:01;20.27;;;13.53;;
4889;SDS011;2459;42.268;23.112;2022-12-29T13:28:33;18.90;;;11.97;;
4889;SDS011;2459;42.268;23.112;2022-12-29T13:31:04;27.00;;;13.30;;
4889;SDS011;2459;42.268;23.112;2022-12-29T13:33:34;30.73;;;13.13;;
4889;SDS011;2459;42.268;23.112;2022-12-29T13:36:03;22.73;;;11.83;;
4889;SDS011;2459;42.268;23.112;2022-12-29T13:38:32;43.40;;;16.57;;
4889;SDS011;2459;42.268;23.112;2022-12-29T13:41:01;53.87;;;21.03;;
4889;SDS011;2459;42.268;23.112;2022-12-29T13:43:30;40.07;;;18.00;;
4889;SDS011;2459;42.268;23.112;2022-12-29T13:45:59;51.53;;;22.93;;
4889;SDS011;2459;42.268;23.112;2022-12-29T13:48:30;34.67;;;15.03;;
4889;SDS011;2459;42.268;23.112;2022-12-29T13:51:00;17.60;;;11.27;;
4889;SDS011;2459;42.268;23.112;2022-12-29T13:53:29;55.93;;;26.50;;
4889;SDS011;2459;42.268;23.112;2022-12-29T13:56:03;31.57;;;15.40;;
4889;SDS011;2459;42.268;23.112;2022-12-29T13:58:34;20.03;;;10.60;;
4889;SDS011;2459;42.268;23.112;2022-12-29T14:01:07;26.47;;;12.70;;
4889;SDS011;2459;42.268;23.112;2022-12-29T14:06:20;14.80;;;10.03;;
4889;SDS011;2459;42.268;23.112;2022-12-29T14:08:47;17.77;;;12.53;;
4889;SDS011;2459;42.268;23.112;2022-12-29T14:11:14;31.83;;;14.83;;
4889;SDS011;2459;42.268;23.112;2022-12-29T14:13:42;27.07;;;14.07;;
4889;SDS011;2459;42.268;23.112;2022-12-29T14:16:25;27.43;;;14.87;;
4889;SDS011;2459;42.268;23.112;2022-12-29T14:18:52;32.90;;;17.20;;
4889;SDS011;2459;42.268;23.112;2022-12-29T14:21:20;31.70;;;14.90;;
4889;SDS011;2459;42.268;23.112;2022-12-29T14:23:49;24.63;;;13.83;;
4889;SDS011;2459;42.268;23.112;2022-12-29T14:26:16;26.87;;;13.90;;
4889;SDS011;2459;42.268;23.112;2022-12-29T14:28:43;45.47;;;13.27;;
4889;SDS011;2459;42.268;23.112;2022-12-29T14:36:41;32.27;;;13.00;;
4889;SDS011;2459;42.268;23.112;2022-12-29T14:41:53;47.63;;;17.30;;
4889;SDS011;2459;42.268;23.112;2022-12-29T14:44:25;55.90;;;17.53;;
4889;SDS011;2459;42.268;23.112;2022-12-29T14:46:55;61.03;;;17.00;;
4889;SDS011;2459;42.268;23.112;2022-12-29T14:49:23;58.10;;;17.00;;
4889;SDS011;2459;42.268;23.112;2022-12-29T14:51:52;47.13;;;14.00;;
4889;SDS011;2459;42.268;23.112;2022-12-29T14:57:04;41.73;;;21.10;;
4889;SDS011;2459;42.268;23.112;2022-12-29T14:59:32;56.47;;;18.87;;
4889;SDS011;2459;42.268;23.112;2022-12-29T15:02:00;38.40;;;17.40;;
4889;SDS011;2459;42.268;23.112;2022-12-29T15:04:31;42.13;;;14.47;;
4889;SDS011;2459;42.268;23.112;2022-12-29T15:07:00;89.20;;;26.73;;
4889;SDS011;2459;42.268;23.112;2022-12-29T15:09:30;55.03;;;19.00;;
4889;SDS011;2459;42.268;23.112;2022-12-29T15:12:01;29.60;;;13.47;;
4889;SDS011;2459;42.268;23.112;2022-12-29T15:14:31;25.13;;;13.50;;
4889;SDS011;2459;42.268;23.112;2022-12-29T15:16:58;29.17;;;16.10;;
4889;SDS011;2459;42.268;23.112;2022-12-29T15:19:26;24.27;;;14.53;;